Time;durP1;ratioP1;P1;durP2;ratioP2;P2;SDS_P1;SDS_P2;PMS_P1;PMS_P2;Temp;Humidity;BMP_temperature;BMP_pressure;BME280_temperature;BME280_humidity;BME280_pressure;Samples;Min_cycle;Max_cycle;Signal;HPM_P1;HPM_P2
2024/04/08 04:06:22;;;;;;;0.37;0.37;;;15.20;99.90;;;;;;5887387;22;20495;-59
2024/04/08 04:08:48;;;;;;;0.30;0.30;;;15.10;99.90;;;;;;4995825;28;20855;-59
2024/04/08 04:11:13;;;;;;;0.30;0.30;;;15.10;99.90;;;;;;4996703;28;20248;-61
2024/04/08 04:13:39;;;;;;;0.57;0.57;;;15.10;99.90;;;;;;4996541;28;20465;-59
2024/04/08 04:16:05;;;;;;;0.30;0.30;;;15.00;99.90;;;;;;4996272;28;20170;-61
2024/04/08 04:18:32;;;;;;;0.30;0.30;;;15.00;99.90;;;;;;4996648;28;20184;-61
2024/04/08 04:20:57;;;;;;;0.37;0.37;;;14.90;99.90;;;;;;4996532;28;20734;-61
2024/04/08 04:23:23;;;;;;;0.37;0.37;;;14.90;99.90;;;;;;4996900;28;20469;-60
2024/04/08 04:25:53;;;;;;;0.30;0.30;;;15.00;99.90;;;;;;4995971;28;20631;-59
2024/04/08 04:28:20;;;;;;;0.40;0.40;;;14.90;99.90;;;;;;4996134;28;20948;-59
2024/04/08 04:30:53;;;;;;;0.30;0.30;;;14.90;99.90;;;;;;4996398;28;20411;-60
2024/04/08 04:33:18;;;;;;;0.43;0.43;;;14.90;99.90;;;;;;4996224;28;20816;-60
2024/04/08 04:35:54;;;;;;;0.30;0.30;;;14.80;99.90;;;;;;4995495;28;20410;-60
2024/04/08 04:38:20;;;;;;;0.37;0.37;;;14.80;99.90;;;;;;4995530;28;20199;-60
2024/04/08 04:40:45;;;;;;;0.40;0.40;;;14.90;99.90;;;;;;4996032;28;20418;-60
2024/04/08 04:43:11;;;;;;;0.40;0.40;;;14.90;99.90;;;;;;4996370;28;20170;-60
2024/04/08 04:45:36;;;;;;;0.50;0.50;;;14.90;99.90;;;;;;4995590;28;20210;-60
2024/04/08 04:48:02;;;;;;;0.30;0.30;;;14.80;99.90;;;;;;4995740;28;20191;-60
2024/04/08 04:50:30;;;;;;;0.30;0.30;;;14.80;99.90;;;;;;4995919;28;20171;-60
2024/04/08 04:52:56;;;;;;;0.33;0.33;;;14.70;99.90;;;;;;4996152;28;20415;-60
2024/04/08 04:55:21;;;;;;;0.30;0.30;;;14.70;99.90;;;;;;4995383;28;20407;-60
2024/04/08 04:57:47;;;;;;;0.30;0.30;;;14.60;99.90;;;;;;4995759;28;20197;-60
2024/04/08 05:00:13;;;;;;;0.30;0.30;;;14.60;99.90;;;;;;4994955;28;20506;-59
2024/04/08 05:02:38;;;;;;;0.30;0.30;;;14.60;99.90;;;;;;4995766;28;20243;-60
2024/04/08 05:05:04;;;;;;;0.40;0.40;;;14.60;99.90;;;;;;4993800;28;20954;-60
2024/04/08 05:07:30;;;;;;;0.30;0.30;;;14.60;99.90;;;;;;4975808;28;20222;-61
2024/04/08 05:09:57;;;;;;;0.57;0.57;;;14.60;99.90;;;;;;4975918;28;20199;-60
2024/04/08 05:12:23;;;;;;;0.40;0.40;;;14.50;99.90;;;;;;4974767;28;20635;-62
2024/04/08 05:14:48;;;;;;;0.30;0.30;;;14.50;99.90;;;;;;4993100;28;20503;-60
2024/04/08 05:17:14;;;;;;;0.30;0.30;;;14.50;99.90;;;;;;4993081;28;20232;-61
2024/04/08 05:19:39;;;;;;;0.50;0.40;;;14.60;99.90;;;;;;4993314;28;20358;-63
2024/04/08 05:22:05;;;;;;;0.40;0.40;;;14.60;99.90;;;;;;4995124;28;20614;-60
2024/04/08 05:24:31;;;;;;;0.37;0.37;;;14.70;99.90;;;;;;4995114;28;20167;-61
2024/04/08 05:26:56;;;;;;;0.30;0.30;;;14.80;99.90;;;;;;4994908;28;20867;-61
2024/04/08 05:29:25;;;;;;;0.40;0.40;;;14.80;99.90;;;;;;4995238;28;20521;-59
2024/04/08 05:31:50;;;;;;;0.30;0.30;;;14.90;99.90;;;;;;4995191;28;20168;-60
2024/04/08 05:34:16;;;;;;;0.30;0.30;;;15.00;99.90;;;;;;4994809;28;20412;-59
2024/04/08 05:36:41;;;;;;;0.30;0.30;;;15.10;99.90;;;;;;4994707;28;20243;-59
2024/04/08 05:39:07;;;;;;;0.60;0.60;;;15.10;99.90;;;;;;4994642;28;20211;-59
2024/04/08 05:41:33;;;;;;;0.57;0.57;;;15.20;99.90;;;;;;4994992;28;20172;-60
2024/04/08 05:43:58;;;;;;;0.30;0.30;;;15.20;99.90;;;;;;4995286;28;20683;-59
2024/04/08 05:46:27;;;;;;;0.30;0.30;;;15.30;99.90;;;;;;4976904;28;20216;-62
2024/04/08 05:48:52;;;;;;;0.40;0.40;;;15.40;99.90;;;;;;4990913;28;20187;-60
2024/04/08 05:51:18;;;;;;;0.30;0.30;;;15.50;99.90;;;;;;4976586;28;20437;-60
2024/04/08 05:53:43;;;;;;;0.40;0.40;;;15.60;99.90;;;;;;4976738;28;20276;-59
2024/04/08 05:56:09;;;;;;;0.30;0.30;;;15.80;99.90;;;;;;4993689;28;20545;-61
2024/04/08 05:58:35;;;;;;;0.50;0.50;;;15.90;99.90;;;;;;4993892;28;20185;-59
2024/04/08 06:01:01;;;;;;;0.30;0.30;;;16.10;99.90;;;;;;4993202;28;20206;-61
2024/04/08 06:03:27;;;;;;;0.40;0.40;;;16.30;99.90;;;;;;4992613;28;20230;-60
2024/04/08 06:05:53;;;;;;;0.40;0.40;;;16.50;99.90;;;;;;4993125;28;20415;-60
2024/04/08 06:08:18;;;;;;;0.30;0.30;;;16.70;99.90;;;;;;4993763;28;20215;-61
2024/04/08 06:10:50;;;;;;;0.60;0.50;;;16.90;99.90;;;;;;4992947;28;20330;-60
2024/04/08 06:13:16;;;;;;;0.30;0.30;;;17.10;99.90;;;;;;4993047;28;20184;-61
2024/04/08 06:15:42;;;;;;;0.40;0.40;;;17.20;99.90;;;;;;4992527;28;21582;-60
2024/04/08 06:18:07;;;;;;;0.30;0.20;;;17.50;99.90;;;;;;4992349;28;20874;-63
2024/04/08 06:20:33;;;;;;;0.30;0.30;;;17.70;99.20;;;;;;4993640;28;20179;-59
2024/04/08 06:23:00;;;;;;;0.30;0.30;;;17.80;99.00;;;;;;4976231;28;20175;-60
2024/04/08 06:25:26;;;;;;;0.30;0.30;;;18.00;98.80;;;;;;4993622;28;20207;-60
2024/04/08 06:27:52;;;;;;;0.40;0.40;;;18.20;98.60;;;;;;4993730;28;20985;-61
2024/04/08 06:30:17;;;;;;;0.30;0.20;;;18.30;98.80;;;;;;4993141;28;20253;-61
2024/04/08 06:32:49;;;;;;;0.30;0.30;;;18.50;98.80;;;;;;4993751;28;20301;-59
2024/04/08 06:35:18;;;;;;;0.30;0.20;;;18.60;98.90;;;;;;4993268;28;20593;-60
2024/04/08 06:37:43;;;;;;;0.50;0.50;;;18.80;98.60;;;;;;4992696;28;21044;-60
2024/04/08 06:41:44;;;;;;;0.30;0.30;;;19.00;98.20;;;;;;5508109;25;20560;-61
2024/04/08 06:44:09;;;;;;;0.30;0.30;;;19.50;97.00;;;;;;5507485;26;20905;-60
2024/04/08 06:46:35;;;;;;;0.30;0.30;;;19.70;96.50;;;;;;5507473;25;20250;-60
2024/04/08 06:49:00;;;;;;;0.37;0.37;;;19.90;96.30;;;;;;5481708;25;20299;-60
2024/04/08 06:51:26;;;;;;;0.67;0.67;;;20.10;96.40;;;;;;5500955;26;20267;-61
2024/04/08 06:53:51;;;;;;;0.30;0.30;;;20.30;95.60;;;;;;5506664;25;20230;-61
2024/04/08 06:56:17;;;;;;;0.30;0.30;;;20.60;95.00;;;;;;5506730;26;20224;-61
2024/04/08 06:58:43;;;;;;;0.30;0.20;;;20.90;94.70;;;;;;5499223;25;20702;-64
2024/04/08 07:01:08;;;;;;;0.30;0.30;;;21.20;94.10;;;;;;5505537;26;20219;-60
2024/04/08 07:03:34;;;;;;;0.80;0.80;;;21.30;93.00;;;;;;5500229;25;20235;-59
2024/04/08 07:05:59;;;;;;;0.30;0.30;;;21.50;93.00;;;;;;5507872;25;20212;-59
2024/04/08 07:08:28;;;;;;;0.30;0.30;;;21.80;92.40;;;;;;5520929;25;20236;-60
2024/04/08 07:10:54;;;;;;;0.60;0.57;;;22.00;92.00;;;;;;5505248;26;20232;-58
2024/04/08 07:13:19;;;;;;;0.30;0.30;;;22.20;92.40;;;;;;5499890;26;20970;-60
2024/04/08 07:15:55;;;;;;;0.30;0.30;;;22.50;91.90;;;;;;5506666;26;20594;-59
2024/04/08 07:18:21;;;;;;;0.30;0.30;;;22.90;91.60;;;;;;5523087;25;20261;-60
2024/04/08 07:20:47;;;;;;;0.30;0.30;;;23.30;90.80;;;;;;5544754;25;20648;-61
2024/04/08 07:23:12;;;;;;;0.30;0.30;;;23.70;90.70;;;;;;5523265;25;20455;-60
2024/04/08 07:25:38;;;;;;;0.30;0.30;;;24.10;90.40;;;;;;5506835;26;20557;-60
2024/04/08 07:28:04;;;;;;;0.40;0.40;;;24.40;90.00;;;;;;5507080;25;20285;-58
2024/04/08 07:30:29;;;;;;;0.30;0.20;;;24.80;89.00;;;;;;5486004;26;20267;-60
2024/04/08 07:32:56;;;;;;;0.57;0.57;;;25.00;87.00;;;;;;5507424;25;20274;-57
2024/04/08 07:35:22;;;;;;;0.37;0.37;;;24.90;86.50;;;;;;5506795;25;20387;-60
2024/04/08 07:37:47;;;;;;;0.30;0.30;;;25.00;85.40;;;;;;5501739;25;20451;-59
2024/04/08 07:40:13;;;;;;;0.30;0.20;;;25.10;84.90;;;;;;5470657;26;20229;-60
2024/04/08 07:42:39;;;;;;;0.30;0.30;;;25.10;84.80;;;;;;5474777;25;20508;-61
2024/04/08 07:45:06;;;;;;;0.30;0.20;;;25.20;84.80;;;;;;5504349;25;20487;-58
2024/04/08 07:47:32;;;;;;;0.30;0.20;;;25.40;84.80;;;;;;5477843;25;20561;-60
2024/04/08 07:49:58;;;;;;;0.83;0.83;;;25.70;84.50;;;;;;5494336;25;20434;-60
2024/04/08 07:52:23;;;;;;;0.40;0.40;;;26.00;82.80;;;;;;5459124;26;20214;-60
2024/04/08 07:54:49;;;;;;;0.30;0.30;;;26.30;81.80;;;;;;5500894;25;21142;-59
2024/04/08 07:57:15;;;;;;;1.80;1.70;;;26.70;80.70;;;;;;5455035;26;20338;-60
2024/04/08 07:59:41;;;;;;;0.30;0.20;;;27.20;79.90;;;;;;5484840;26;20295;-61
2024/04/08 08:02:07;;;;;;;0.70;0.40;;;27.70;77.10;;;;;;5487162;26;20688;-60
2024/04/08 08:04:32;;;;;;;0.40;0.30;;;28.10;75.90;;;;;;5490683;26;20228;-60
2024/04/08 08:06:58;;;;;;;0.50;0.50;;;28.60;75.80;;;;;;5475163;26;20572;-60
2024/04/08 08:09:23;;;;;;;0.30;0.30;;;29.10;73.30;;;;;;5483044;26;20271;-61
2024/04/08 08:11:49;;;;;;;0.30;0.30;;;29.60;70.50;;;;;;5482501;26;20222;-61
2024/04/08 08:14:15;;;;;;;0.37;0.27;;;29.70;69.50;;;;;;5484477;26;20376;-61
2024/04/08 08:16:42;;;;;;;0.60;0.50;;;29.90;69.20;;;;;;5468402;26;20234;-60
2024/04/08 08:19:08;;;;;;;0.30;0.20;;;30.30;67.60;;;;;;5484657;26;20233;-62
2024/04/08 08:21:33;;;;;;;0.50;0.50;;;30.70;67.00;;;;;;5490623;26;20446;-59
2024/04/08 08:23:59;;;;;;;0.30;0.30;;;31.10;64.20;;;;;;5477992;26;20283;-60
2024/04/08 08:26:28;;;;;;;0.60;0.60;;;31.30;64.50;;;;;;5454264;26;20246;-61
2024/04/08 08:28:54;;;;;;;0.70;0.70;;;31.60;62.90;;;;;;5474340;26;20292;-61
2024/04/08 08:31:19;;;;;;;0.30;0.30;;;31.90;61.80;;;;;;5503358;26;20914;-61
2024/04/08 08:33:45;;;;;;;0.30;0.30;;;32.00;60.70;;;;;;5499195;26;20428;-60
2024/04/08 08:36:10;;;;;;;0.40;0.40;;;32.10;59.80;;;;;;5483326;26;20276;-61
2024/04/08 08:38:37;;;;;;;0.67;0.67;;;32.30;59.30;;;;;;5497213;26;20343;-61
2024/04/08 08:41:07;;;;;;;0.93;0.50;;;32.50;58.00;;;;;;5523177;25;20223;-61
2024/04/08 08:43:33;;;;;;;0.40;0.40;;;32.70;58.50;;;;;;5490479;26;20986;-60
2024/04/08 08:45:59;;;;;;;1.03;1.03;;;33.20;56.90;;;;;;5482466;26;20474;-60
2024/04/08 08:48:25;;;;;;;1.53;1.43;;;33.80;56.50;;;;;;5489356;26;20979;-60
2024/04/08 08:50:51;;;;;;;0.50;0.50;;;34.30;55.60;;;;;;5490556;26;20438;-65
2024/04/08 08:53:17;;;;;;;0.40;0.40;;;34.60;54.80;;;;;;5473817;26;20224;-60
2024/04/08 08:55:44;;;;;;;0.40;0.40;;;34.70;54.50;;;;;;5462630;26;20224;-61
2024/04/08 08:58:10;;;;;;;0.50;0.40;;;34.90;52.70;;;;;;5480063;26;20283;-59
2024/04/08 09:00:40;;;;;;;0.33;0.33;;;35.10;52.80;;;;;;5524369;26;20861;-61
2024/04/08 09:03:15;;;;;;;0.30;0.30;;;35.10;52.80;;;;;;5478251;26;20515;-62
2024/04/08 09:05:41;;;;;;;0.50;0.50;;;34.90;52.70;;;;;;5489789;26;20449;-59
2024/04/08 09:08:07;;;;;;;0.50;0.50;;;34.70;51.90;;;;;;5489761;26;20872;-59
2024/04/08 09:10:48;;;;;;;0.83;0.83;;;34.90;52.30;;;;;;5482132;26;20380;-60
2024/04/08 09:13:21;;;;;;;0.40;0.40;;;34.90;51.70;;;;;;5489762;26;20280;-60
2024/04/08 09:15:48;;;;;;;0.40;0.40;;;35.00;51.70;;;;;;5489768;26;20442;-60
2024/04/08 09:18:15;;;;;;;0.30;0.30;;;34.90;50.60;;;;;;5497330;26;20973;-60
2024/04/08 09:20:40;;;;;;;0.50;0.50;;;34.90;51.00;;;;;;5489493;25;20560;-60
2024/04/08 09:23:07;;;;;;;0.30;0.30;;;34.90;50.80;;;;;;5459921;26;20473;-62
2024/04/08 09:25:34;;;;;;;0.30;0.30;;;35.00;51.00;;;;;;5482826;26;20236;-59
2024/04/08 09:28:00;;;;;;;0.83;0.70;;;35.10;50.70;;;;;;5489621;26;20841;-66
2024/04/08 09:30:26;;;;;;;0.40;0.40;;;35.20;49.80;;;;;;5478793;26;20600;-65
2024/04/08 09:32:52;;;;;;;0.43;0.40;;;35.00;50.00;;;;;;5456030;26;20226;-60
2024/04/08 09:35:17;;;;;;;0.30;0.30;;;34.90;50.20;;;;;;5489770;26;20502;-60
2024/04/08 09:37:43;;;;;;;0.40;0.40;;;34.90;49.80;;;;;;5489939;26;20328;-59
2024/04/08 09:40:12;;;;;;;0.50;0.47;;;35.00;49.60;;;;;;5495354;25;20681;-61
2024/04/08 09:42:40;;;;;;;0.53;0.53;;;34.90;48.60;;;;;;5485662;26;20232;-60
2024/04/08 09:45:06;;;;;;;0.50;0.50;;;35.00;48.90;;;;;;5485674;26;21083;-60
2024/04/08 09:47:32;;;;;;;0.50;0.40;;;35.00;49.10;;;;;;5466447;26;20520;-60
2024/04/08 09:49:58;;;;;;;0.67;0.60;;;34.90;49.90;;;;;;5486283;26;20510;-59
2024/04/08 09:52:27;;;;;;;0.40;0.40;;;34.80;49.80;;;;;;5458575;26;20446;-61
2024/04/08 09:54:54;;;;;;;0.30;0.30;;;34.80;49.60;;;;;;5468654;26;20515;-61
2024/04/08 09:57:25;;;;;;;0.30;0.30;;;34.80;49.30;;;;;;5453536;26;20467;-59
2024/04/08 09:59:56;;;;;;;0.50;0.50;;;35.00;48.90;;;;;;5508747;26;21032;-60
2024/04/08 10:02:30;;;;;;;0.30;0.30;;;35.30;48.80;;;;;;5454033;26;20569;-59
2024/04/08 10:05:00;;;;;;;0.60;0.60;;;35.50;48.40;;;;;;5499960;26;20526;-59
2024/04/08 10:07:26;;;;;;;0.30;0.30;;;35.80;48.20;;;;;;5459014;26;20507;-61
2024/04/08 10:09:53;;;;;;;0.70;0.70;;;35.90;49.80;;;;;;5455680;26;20431;-60
2024/04/08 10:12:30;;;;;;;0.50;0.50;;;35.80;48.50;;;;;;5455777;26;20451;-62
2024/04/08 10:14:55;;;;;;;0.37;0.37;;;35.80;47.10;;;;;;5466857;26;20498;-62
2024/04/08 10:17:21;;;;;;;0.50;0.50;;;35.90;47.50;;;;;;5453552;26;20463;-62
2024/04/08 10:19:46;;;;;;;0.40;0.40;;;36.20;46.60;;;;;;5473266;26;20229;-61
2024/04/08 10:22:17;;;;;;;0.30;0.30;;;36.30;45.90;;;;;;5456921;26;20302;-62
2024/04/08 10:24:43;;;;;;;0.40;0.40;;;36.40;46.00;;;;;;5468675;26;20719;-61
2024/04/08 10:27:11;;;;;;;0.40;0.40;;;36.40;45.70;;;;;;5460089;26;20462;-60
2024/04/08 10:29:38;;;;;;;0.40;0.40;;;36.50;44.90;;;;;;5488793;26;20220;-60
2024/04/08 10:32:06;;;;;;;0.50;0.40;;;36.20;44.50;;;;;;5484318;26;20647;-59
2024/04/08 10:34:34;;;;;;;0.40;0.40;;;35.60;45.10;;;;;;5507764;26;20984;-60
2024/04/08 10:36:59;;;;;;;0.30;0.30;;;35.30;45.10;;;;;;5525228;25;20476;-60
2024/04/08 10:39:28;;;;;;;0.40;0.40;;;35.30;44.90;;;;;;5500062;26;20454;-62
2024/04/08 10:42:10;;;;;;;0.30;0.30;;;35.30;45.60;;;;;;5486414;26;20221;-61
2024/04/08 10:44:36;;;;;;;0.50;0.50;;;35.30;45.50;;;;;;5487550;26;20469;-60
2024/04/08 10:47:02;;;;;;;0.50;0.50;;;35.20;44.00;;;;;;5483964;26;20497;-60
2024/04/08 10:49:27;;;;;;;0.30;0.30;;;35.20;43.80;;;;;;5484690;26;20345;-61
2024/04/08 10:51:53;;;;;;;0.60;0.50;;;35.10;45.30;;;;;;5462284;26;20334;-61
2024/04/08 10:54:18;;;;;;;0.40;0.40;;;35.10;45.30;;;;;;5464929;26;20328;-61
2024/04/08 10:56:44;;;;;;;0.50;0.50;;;35.20;43.90;;;;;;5484000;26;20263;-62
2024/04/08 10:59:10;;;;;;;0.40;0.40;;;35.30;43.50;;;;;;5488791;26;20711;-61
2024/04/08 11:01:35;;;;;;;0.30;0.30;;;35.20;43.20;;;;;;5500523;26;20274;-60
2024/04/08 11:04:02;;;;;;;0.60;0.40;;;35.20;43.30;;;;;;5486689;26;20336;-62
2024/04/08 11:06:28;;;;;;;0.90;0.70;;;35.30;43.50;;;;;;5488353;26;20259;-62
2024/04/08 11:08:54;;;;;;;0.40;0.40;;;35.20;41.70;;;;;;5479855;26;20511;-62
2024/04/08 11:11:24;;;;;;;0.40;0.40;;;35.00;42.80;;;;;;5458132;26;20502;-63
2024/04/08 11:13:50;;;;;;;0.37;0.37;;;34.80;43.70;;;;;;5489102;26;20267;-64
2024/04/08 11:16:16;;;;;;;0.30;0.30;;;34.60;42.40;;;;;;5453312;26;20960;-61
2024/04/08 11:18:42;;;;;;;0.40;0.40;;;34.10;42.40;;;;;;5451962;26;20533;-61
2024/04/08 11:21:08;;;;;;;0.30;0.27;;;33.60;43.00;;;;;;5452111;26;20444;-61
2024/04/08 11:23:33;;;;;;;0.40;0.40;;;33.20;41.80;;;;;;5472511;26;20578;-61
2024/04/08 11:26:00;;;;;;;0.30;0.30;;;32.80;41.80;;;;;;5487671;26;20264;-61
2024/04/08 11:28:26;;;;;;;0.30;0.30;;;32.50;42.30;;;;;;5491706;26;20334;-61
2024/04/08 11:30:53;;;;;;;0.50;0.50;;;32.40;41.70;;;;;;5492302;26;20421;-61
2024/04/08 11:33:18;;;;;;;0.50;0.50;;;32.20;42.00;;;;;;5492263;26;20260;-61
2024/04/08 11:35:44;;;;;;;0.30;0.30;;;32.20;43.40;;;;;;5491742;26;20434;-61
2024/04/08 11:38:15;;;;;;;0.30;0.30;;;31.80;43.70;;;;;;5471179;26;20234;-61
2024/04/08 11:40:41;;;;;;;0.30;0.30;;;31.60;44.30;;;;;;5455749;26;20261;-61
2024/04/08 11:43:06;;;;;;;0.30;0.30;;;31.40;44.70;;;;;;5455322;26;20480;-61
2024/04/08 11:45:32;;;;;;;0.50;0.50;;;31.20;47.00;;;;;;5455306;26;20325;-61
2024/04/08 11:47:58;;;;;;;0.30;0.30;;;30.80;46.90;;;;;;5455398;26;20272;-61
2024/04/08 11:50:23;;;;;;;0.30;0.30;;;30.70;45.70;;;;;;5455249;26;20255;-61
2024/04/08 11:52:49;;;;;;;0.30;0.30;;;30.60;45.20;;;;;;5474329;26;20336;-61
2024/04/08 11:55:14;;;;;;;0.77;0.77;;;30.60;48.00;;;;;;5491617;26;20204;-61
2024/04/08 11:57:40;;;;;;;0.30;0.30;;;30.60;47.60;;;;;;5491666;26;20240;-60
2024/04/08 12:00:06;;;;;;;0.30;0.30;;;30.60;46.40;;;;;;5492042;26;20255;-61
2024/04/08 12:02:32;;;;;;;0.30;0.30;;;30.60;46.60;;;;;;5491054;26;20587;-61
2024/04/08 12:04:58;;;;;;;0.30;0.30;;;30.60;48.20;;;;;;5491288;26;20542;-61
2024/04/08 12:07:24;;;;;;;0.30;0.30;;;30.50;47.50;;;;;;5475332;26;21020;-61
2024/04/08 12:09:49;;;;;;;0.30;0.30;;;30.30;46.50;;;;;;5456583;26;20230;-61
2024/04/08 12:12:15;;;;;;;0.30;0.30;;;30.20;45.70;;;;;;5456536;26;20279;-61
2024/04/08 12:14:41;;;;;;;0.30;0.30;;;30.10;46.70;;;;;;5454644;26;20213;-62
2024/04/08 12:17:08;;;;;;;0.30;0.30;;;30.00;46.50;;;;;;5455017;26;20277;-61
2024/04/08 12:19:34;;;;;;;0.40;0.40;;;30.00;45.90;;;;;;5455123;26;20412;-60
2024/04/08 12:22:00;;;;;;;0.30;0.20;;;29.90;44.90;;;;;;5471411;26;20422;-61
2024/04/08 12:24:26;;;;;;;0.30;0.30;;;29.70;45.20;;;;;;5493883;26;20255;-61
2024/04/08 12:26:52;;;;;;;0.30;0.30;;;29.70;46.40;;;;;;5491937;26;21010;-61
2024/04/08 12:29:17;;;;;;;0.30;0.30;;;29.80;45.60;;;;;;5492001;26;20348;-61
2024/04/08 12:31:43;;;;;;;0.40;0.40;;;29.80;46.30;;;;;;5492241;26;20216;-61
2024/04/08 12:34:10;;;;;;;0.30;0.30;;;30.00;45.90;;;;;;5492820;26;20209;-60
2024/04/08 12:36:36;;;;;;;0.50;0.50;;;30.10;46.00;;;;;;5490966;26;20324;-61
2024/04/08 12:39:02;;;;;;;0.40;0.40;;;30.20;45.40;;;;;;5491416;26;20430;-60
2024/04/08 12:41:28;;;;;;;0.30;0.30;;;30.20;46.00;;;;;;5489486;26;20601;-62
2024/04/08 12:43:54;;;;;;;0.30;0.30;;;30.30;46.00;;;;;;5491297;26;20417;-62
2024/04/08 12:46:20;;;;;;;0.30;0.30;;;30.30;45.50;;;;;;5491048;26;20289;-62
2024/04/08 12:48:46;;;;;;;0.30;0.30;;;30.30;46.10;;;;;;5489235;26;20425;-61
2024/04/08 12:51:12;;;;;;;0.30;0.30;;;30.30;46.30;;;;;;5489971;26;20537;-61
2024/04/08 12:53:38;;;;;;;4.10;0.53;;;30.30;46.60;;;;;;5491024;26;20224;-62
2024/04/08 12:56:07;;;;;;;0.30;0.30;;;30.40;46.60;;;;;;5490704;26;20213;-60
2024/04/08 12:58:32;;;;;;;0.77;0.77;;;30.40;47.80;;;;;;5475766;26;20221;-61
2024/04/08 13:00:58;;;;;;;0.30;0.30;;;30.50;47.80;;;;;;5454872;26;20522;-61
2024/04/08 13:03:24;;;;;;;0.30;0.30;;;30.50;48.40;;;;;;5454651;26;20226;-61
2024/04/08 13:05:49;;;;;;;0.30;0.30;;;30.50;48.00;;;;;;5452835;26;20580;-61
2024/04/08 13:08:16;;;;;;;1.13;0.70;;;30.50;48.00;;;;;;5457372;26;20225;-61
2024/04/08 13:10:41;;;;;;;0.30;0.27;;;30.40;48.00;;;;;;5490636;26;20246;-60
2024/04/08 13:13:07;;;;;;;0.30;0.30;;;30.20;47.90;;;;;;5490740;26;20422;-61
2024/04/08 13:15:33;;;;;;;0.30;0.23;;;30.20;48.20;;;;;;5490209;26;20221;-62
2024/04/08 13:17:58;;;;;;;0.30;0.30;;;30.20;47.90;;;;;;5490708;26;20510;-60
2024/04/08 13:20:24;;;;;;;0.30;0.30;;;30.10;47.90;;;;;;5486489;26;20368;-61
2024/04/08 13:22:50;;;;;;;0.40;0.40;;;30.00;48.60;;;;;;5487219;26;20224;-62
2024/04/08 13:25:17;;;;;;;0.30;0.30;;;29.90;49.00;;;;;;5470631;26;20813;-61
2024/04/08 13:27:42;;;;;;;0.30;0.30;;;29.90;48.40;;;;;;5486840;26;20259;-59
2024/04/08 13:30:10;;;;;;;0.80;0.77;;;29.70;49.80;;;;;;5453534;26;20761;-61
2024/04/08 13:32:36;;;;;;;0.33;0.33;;;29.60;49.50;;;;;;5489763;26;20255;-61
2024/04/08 13:35:04;;;;;;;0.30;0.30;;;29.50;49.60;;;;;;5489486;26;20446;-61
2024/04/08 13:37:30;;;;;;;0.30;0.30;;;29.50;49.40;;;;;;5496859;26;20225;-62
2024/04/08 13:39:56;;;;;;;0.30;0.30;;;29.50;49.40;;;;;;5471743;26;20841;-61
2024/04/08 13:42:21;;;;;;;0.30;0.30;;;29.60;48.90;;;;;;5473864;26;20435;-62
2024/04/08 13:44:47;;;;;;;0.40;0.30;;;29.60;48.80;;;;;;5465242;26;20268;-62
2024/04/08 13:47:14;;;;;;;0.30;0.20;;;29.60;49.00;;;;;;5485023;26;20236;-61
2024/04/08 13:49:39;;;;;;;0.30;0.30;;;29.60;49.40;;;;;;5486833;26;20928;-63
2024/04/08 13:52:09;;;;;;;0.30;0.30;;;29.60;48.90;;;;;;5488017;26;20508;-60
2024/04/08 13:54:35;;;;;;;0.30;0.30;;;29.60;49.30;;;;;;5488511;26;20266;-61
2024/04/08 13:57:00;;;;;;;0.30;0.20;;;29.70;49.30;;;;;;5508268;26;20487;-60
2024/04/08 13:59:26;;;;;;;0.30;0.23;;;29.60;47.00;;;;;;5474102;26;21005;-61
2024/04/08 14:01:52;;;;;;;0.53;0.53;;;29.60;47.40;;;;;;5451749;26;20226;-62
2024/04/08 14:04:18;;;;;;;6.33;0.93;;;29.60;45.20;;;;;;5475590;26;20594;-63
2024/04/08 14:06:43;;;;;;;0.30;0.20;;;29.60;45.00;;;;;;5489302;26;20220;-62
2024/04/08 14:09:11;;;;;;;0.30;0.30;;;29.60;46.10;;;;;;5488943;26;20511;-62
2024/04/08 14:11:37;;;;;;;0.30;0.30;;;29.60;46.30;;;;;;5489975;26;20267;-62
2024/04/08 14:14:02;;;;;;;0.30;0.20;;;29.60;46.70;;;;;;5489885;26;20803;-61
2024/04/08 14:16:28;;;;;;;0.30;0.30;;;29.60;46.40;;;;;;5467985;26;20622;-61
2024/04/08 14:18:56;;;;;;;0.30;0.30;;;29.60;47.10;;;;;;5453195;26;20265;-59
2024/04/08 14:21:25;;;;;;;0.43;0.43;;;29.70;46.90;;;;;;5452836;26;20225;-59
2024/04/08 14:23:50;;;;;;;0.50;0.30;;;29.60;47.40;;;;;;5453185;26;20762;-63
2024/04/08 14:26:16;;;;;;;0.40;0.40;;;29.60;46.20;;;;;;5452832;26;20549;-60
2024/04/08 14:28:44;;;;;;;0.40;0.30;;;29.50;46.40;;;;;;5453259;26;20548;-60
2024/04/08 14:31:09;;;;;;;0.30;0.30;;;29.50;46.50;;;;;;5468595;26;20252;-60
2024/04/08 14:33:35;;;;;;;0.50;0.50;;;29.50;46.50;;;;;;5489111;26;20486;-62
2024/04/08 14:36:01;;;;;;;0.30;0.30;;;29.50;45.80;;;;;;5489131;26;20321;-60
2024/04/08 14:38:26;;;;;;;1.43;1.33;;;29.50;45.50;;;;;;5480889;26;20284;-61
2024/04/08 14:40:52;;;;;;;0.30;0.20;;;29.40;44.70;;;;;;5469757;26;20252;-60
2024/04/08 14:43:17;;;;;;;0.30;0.30;;;29.40;43.40;;;;;;5452770;26;20213;-60
2024/04/08 14:45:43;;;;;;;0.60;0.60;;;29.30;44.80;;;;;;5477546;26;20280;-61
2024/04/08 14:48:09;;;;;;;0.30;0.20;;;29.20;44.70;;;;;;5453035;26;20762;-61
2024/04/08 14:50:34;;;;;;;0.30;0.30;;;29.10;44.70;;;;;;5453360;26;20329;-61
2024/04/08 14:53:00;;;;;;;0.30;0.30;;;29.10;44.60;;;;;;5452842;26;20209;-60
2024/04/08 14:55:27;;;;;;;0.30;0.20;;;29.10;44.60;;;;;;5462642;26;20220;-61
2024/04/08 14:57:52;;;;;;;0.30;0.30;;;29.00;44.70;;;;;;5486241;26;20603;-62
2024/04/08 15:00:18;;;;;;;0.43;0.43;;;29.00;44.50;;;;;;5456115;26;20488;-60
2024/04/08 15:02:47;;;;;;;0.40;0.40;;;28.90;43.20;;;;;;5493480;26;20212;-60
2024/04/08 15:05:13;;;;;;;0.40;0.40;;;29.00;44.50;;;;;;5491786;26;20216;-60
2024/04/08 15:07:39;;;;;;;0.40;0.40;;;29.00;45.30;;;;;;5492231;26;20509;-59
2024/04/08 15:10:05;;;;;;;0.30;0.20;;;29.00;44.90;;;;;;5477401;26;20451;-59
2024/04/08 15:12:31;;;;;;;0.40;0.40;;;29.00;45.10;;;;;;5456558;26;20591;-60
2024/04/08 15:14:56;;;;;;;0.30;0.30;;;28.90;44.60;;;;;;5455359;26;20415;-62
2024/04/08 15:17:22;;;;;;;0.30;0.30;;;28.80;44.70;;;;;;5489929;26;20367;-60
2024/04/08 15:19:47;;;;;;;0.30;0.30;;;28.80;45.00;;;;;;5459033;26;20570;-61
2024/04/08 15:22:14;;;;;;;0.30;0.30;;;28.70;44.30;;;;;;5454919;26;20660;-62
2024/04/08 15:24:40;;;;;;;0.30;0.30;;;28.60;45.00;;;;;;5466944;26;20229;-63
2024/04/08 15:27:06;;;;;;;0.30;0.20;;;28.50;45.50;;;;;;5465359;26;20459;-61
2024/04/08 15:29:31;;;;;;;0.30;0.30;;;28.50;45.00;;;;;;5455870;26;20936;-62
2024/04/08 15:32:00;;;;;;;0.70;0.60;;;28.50;44.80;;;;;;5455053;26;20230;-62
2024/04/08 15:34:26;;;;;;;0.30;0.30;;;28.50;45.10;;;;;;5455675;26;20218;-62
2024/04/08 15:36:51;;;;;;;0.30;0.30;;;28.50;45.20;;;;;;5454967;26;20629;-62
2024/04/08 15:39:17;;;;;;;0.30;0.30;;;28.50;45.30;;;;;;5455079;26;20916;-62
2024/04/08 15:41:42;;;;;;;0.30;0.20;;;28.50;45.10;;;;;;5454878;26;20222;-60
2024/04/08 15:44:08;;;;;;;0.30;0.20;;;28.50;45.70;;;;;;5455407;26;20221;-60
2024/04/08 15:46:34;;;;;;;0.30;0.30;;;28.50;45.80;;;;;;5465208;26;20237;-60
2024/04/08 15:49:00;;;;;;;0.60;0.60;;;28.50;46.00;;;;;;5455037;26;20229;-60
2024/04/08 15:51:25;;;;;;;0.30;0.20;;;28.60;45.50;;;;;;5454766;26;20637;-60
2024/04/08 15:53:51;;;;;;;0.30;0.20;;;28.50;45.90;;;;;;5463219;26;20518;-62
2024/04/08 15:56:16;;;;;;;0.30;0.30;;;28.60;46.30;;;;;;5455030;26;20230;-61
2024/04/08 15:58:42;;;;;;;0.30;0.20;;;28.60;45.60;;;;;;5456105;26;20229;-61
2024/04/08 16:01:08;;;;;;;0.60;0.50;;;28.50;45.60;;;;;;5483984;26;20233;-61
2024/04/08 16:03:33;;;;;;;0.30;0.20;;;28.60;45.00;;;;;;5493943;26;20635;-61
2024/04/08 16:06:10;;;;;;;0.60;0.60;;;28.60;44.80;;;;;;5500819;26;20270;-58
2024/04/08 16:08:36;;;;;;;0.30;0.30;;;28.60;45.60;;;;;;5506405;25;20224;-61
2024/04/08 16:11:02;;;;;;;0.30;0.20;;;28.60;45.50;;;;;;5491744;26;20449;-61
2024/04/08 16:13:28;;;;;;;0.30;0.20;;;28.60;45.70;;;;;;5490466;26;20904;-61
2024/04/08 16:15:53;;;;;;;0.50;0.50;;;28.50;45.50;;;;;;5479836;26;20281;-61
2024/04/08 16:18:19;;;;;;;0.30;0.30;;;28.50;45.50;;;;;;5478469;25;20224;-61
2024/04/08 16:20:55;;;;;;;0.40;0.40;;;28.50;45.20;;;;;;5473906;26;20350;-61
2024/04/08 16:23:21;;;;;;;0.30;0.20;;;28.50;44.80;;;;;;5453822;26;20226;-61
2024/04/08 16:25:57;;;;;;;2.63;1.83;;;28.50;45.00;;;;;;5466740;26;20572;-60
2024/04/08 16:28:24;;;;;;;0.67;0.67;;;28.50;45.30;;;;;;5470432;26;20232;-60
2024/04/08 16:30:56;;;;;;;0.30;0.30;;;28.40;45.40;;;;;;5459178;26;20471;-60
2024/04/08 16:33:23;;;;;;;1.10;1.10;;;28.40;45.60;;;;;;5454702;26;20447;-60
2024/04/08 16:35:49;;;;;;;0.30;0.20;;;28.40;45.30;;;;;;5454715;26;20415;-60
2024/04/08 16:38:15;;;;;;;1.17;0.47;;;28.40;44.50;;;;;;5454717;26;20508;-60
2024/04/08 16:40:43;;;;;;;0.40;0.40;;;28.40;45.20;;;;;;5454894;26;20432;-60
2024/04/08 16:43:08;;;;;;;0.30;0.20;;;28.40;44.80;;;;;;5454442;26;20514;-59
2024/04/08 16:45:34;;;;;;;0.40;0.40;;;28.40;46.00;;;;;;5453985;26;20466;-59
2024/04/08 16:47:59;;;;;;;0.47;0.47;;;28.40;46.60;;;;;;5454832;26;20561;-61
2024/04/08 16:50:27;;;;;;;0.30;0.30;;;28.40;46.60;;;;;;5454552;26;20214;-61